Time,TemperatureF,DewpointF,PressureIn,WindDirection,WindDirectionDegrees,WindSpeedMPH,WindSpeedGustMPH,Humidity,HourlyPrecipIn,Conditions,Clouds,dailyrainin,SolarRadiationWatts/m^2,SoftwareType,DateUTC
2013-09-03 00:00:00,65.6,64.4,29.81,WSW,256,0.0,1.0,96,0.03,,---,0.00,0.00,VWS V14.01,2013-09-03 04:00:00,
2013-09-03 00:01:00,65.6,64.4,29.81,West,262,4.0,4.0,96,0.03,,---,0.00,0.00,VWS V14.01,2013-09-03 04:01:00,
2013-09-03 00:06:00,65.6,64.4,29.82,WNW,288,0.0,7.0,96,0.03,,---,0.00,0.00,VWS V14.01,2013-09-03 04:06:00,
2013-09-03 00:11:00,65.5,64.3,29.81,West,279,0.0,7.0,96,0.03,,---,0.00,0.00,VWS V14.01,2013-09-03 04:11:00,
2013-09-03 00:16:00,65.4,64.2,29.80,ESE,115,0.0,7.0,96,0.03,,---,0.00,0.00,VWS V14.01,2013-09-03 04:16:00,
2013-09-03 00:21:00,65.4,64.5,29.80,ESE,115,0.0,7.0,97,0.03,,---,0.00,0.00,VWS V14.01,2013-09-03 04:21:00,
2013-09-03 00:26:00,65.3,64.4,29.79,ESE,115,0.0,7.0,97,0.04,,---,0.01,0.00,VWS V14.01,2013-09-03 04:26:00,
2013-09-03 00:30:00,66.1,64.6,29.76,West,279,0.0,5.0,95,0.09,,---,0.71,0.00,VWS V14.01,2013-09-03 04:30:00,
2013-09-03 00:31:00,65.2,64.3,29.80,ESE,115,0.0,0.0,97,0.03,,---,0.01,0.00,VWS V14.01,2013-09-03 04:31:00,
2013-09-03 00:36:00,65.2,64.3,29.80,ESE,115,0.0,0.0,97,0.03,,---,0.01,0.00,VWS V14.01,2013-09-03 04:36:00,
2013-09-03 00:41:00,65.1,64.2,29.79,ESE,115,0.0,0.0,97,0.03,,---,0.01,0.00,VWS V14.01,2013-09-03 04:41:00,
2013-09-03 00:46:00,65.0,64.1,29.79,ESE,115,0.0,0.0,97,0.03,,---,0.01,0.00,VWS V14.01,2013-09-03 04:46:00,
2013-09-03 00:51:00,64.9,64.0,29.78,ESE,115,0.0,0.0,97,0.03,,---,0.01,0.00,VWS V14.01,2013-09-03 04:51:00,
2013-09-03 00:56:00,64.9,64.0,29.78,ESE,115,0.0,0.0,97,0.03,,---,0.01,0.00,VWS V14.01,2013-09-03 04:56:00,
2013-09-03 01:00:00,65.6,64.4,29.82,WSW,256,1.0,7.0,96,0.11,,---,0.73,0.00,VWS V14.01,2013-09-03 05:00:00,
2013-09-03 01:01:00,64.9,64.0,29.78,ESE,115,0.0,0.0,97,0.01,,---,0.01,0.00,VWS V14.01,2013-09-03 05:01:00,
2013-09-03 01:06:00,64.8,63.9,29.78,ESE,115,0.0,0.0,97,0.01,,---,0.01,0.00,VWS V14.01,2013-09-03 05:06:00,
2013-09-03 01:11:00,64.8,63.9,29.77,ESE,115,0.0,0.0,97,0.01,,---,0.01,0.00,VWS V14.01,2013-09-03 05:11:00,
2013-09-03 01:16:00,64.7,63.8,29.78,ESE,115,0.0,0.0,97,0.01,,---,0.01,0.00,VWS V14.01,2013-09-03 05:16:00,
2013-09-03 01:21:00,64.5,63.6,29.78,ESE,115,0.0,0.0,97,0.01,,---,0.01,0.00,VWS V14.01,2013-09-03 05:21:00,
2013-09-03 01:26:00,64.4,63.5,29.78,ESE,115,0.0,0.0,97,0.01,,---,0.01,0.00,VWS V14.01,2013-09-03 05:26:00,
2013-09-03 01:30:00,65.3,64.4,29.80,ESE,115,0.0,7.0,97,0.04,,---,0.01,0.00,VWS V14.01,2013-09-03 05:30:00,
2013-09-03 01:31:00,64.4,63.5,29.78,ESE,115,0.0,0.0,97,0.00,,---,0.01,0.00,VWS V14.01,2013-09-03 05:31:00,
2013-09-03 01:36:00,64.3,63.4,29.78,ESE,115,0.0,0.0,97,0.00,,---,0.01,0.00,VWS V14.01,2013-09-03 05:36:00,
2013-09-03 01:41:00,64.1,63.2,29.77,ESE,115,0.0,0.0,97,0.00,,---,0.01,0.00,VWS V14.01,2013-09-03 05:41:00,
2013-09-03 01:46:00,64.0,63.1,29.78,ESE,115,0.0,0.0,97,0.00,,---,0.01,0.00,VWS V14.01,2013-09-03 05:46:00,
2013-09-03 01:51:00,64.0,63.1,29.77,ESE,115,0.0,0.0,97,0.00,,---,0.01,0.00,VWS V14.01,2013-09-03 05:51:00,
2013-09-03 01:56:00,64.0,63.1,29.77,ESE,115,0.0,0.0,97,0.00,,---,0.01,0.00,VWS V14.01,2013-09-03 05:56:00,
2013-09-03 02:00:00,64.9,64.0,29.78,ESE,115,0.0,0.0,97,0.03,,---,0.01,0.00,VWS V14.01,2013-09-03 06:00:00,
2013-09-03 02:01:00,64.0,63.4,29.78,ESE,115,0.0,0.0,98,0.00,,---,0.01,0.00,VWS V14.01,2013-09-03 06:01:00,
2013-09-03 02:06:00,64.0,63.4,29.78,ESE,115,0.0,0.0,98,0.00,,---,0.01,0.00,VWS V14.01,2013-09-03 06:06:00,
2013-09-03 02:11:00,63.9,63.0,29.78,ESE,115,0.0,0.0,97,0.00,,---,0.01,0.00,VWS V14.01,2013-09-03 06:11:00,
2013-09-03 02:16:00,63.8,62.9,29.77,ESE,115,0.0,0.0,97,0.00,,---,0.01,0.00,VWS V14.01,2013-09-03 06:16:00,
2013-09-03 02:21:00,63.8,62.9,29.78,ESE,115,0.0,0.0,97,0.00,,---,0.01,0.00,VWS V14.01,2013-09-03 06:21:00,
2013-09-03 02:26:00,63.7,62.8,29.78,ESE,115,0.0,0.0,97,0.00,,---,0.01,0.00,VWS V14.01,2013-09-03 06:26:00,
2013-09-03 02:30:00,64.4,63.5,29.78,ESE,115,0.0,0.0,97,0.01,,---,0.01,0.00,VWS V14.01,2013-09-03 06:30:00,
2013-09-03 02:31:00,63.6,62.7,29.77,ESE,115,0.0,0.0,97,0.00,,---,0.01,0.00,VWS V14.01,2013-09-03 06:31:00,
2013-09-03 02:36:00,63.5,62.9,29.77,ESE,115,0.0,0.0,98,0.00,,---,0.01,0.00,VWS V14.01,2013-09-03 06:36:00,
2013-09-03 02:41:00,63.4,62.8,29.77,ESE,115,0.0,0.0,98,0.00,,---,0.01,0.00,VWS V14.01,2013-09-03 06:41:00,
2013-09-03 02:46:00,63.4,62.8,29.78,ESE,115,0.0,0.0,98,0.00,,---,0.01,0.00,VWS V14.01,2013-09-03 06:46:00,
2013-09-03 02:51:00,63.2,62.3,29.78,ESE,115,0.0,0.0,97,0.00,,---,0.01,0.00,VWS V14.01,2013-09-03 06:51:00,
2013-09-03 02:56:00,63.1,62.2,29.78,ESE,115,0.0,0.0,97,0.00,,---,0.01,0.00,VWS V14.01,2013-09-03 06:56:00,
2013-09-03 03:00:00,64.1,63.5,29.78,ESE,115,0.0,0.0,98,0.00,,---,0.01,0.00,VWS V14.01,2013-09-03 07:00:00,
2013-09-03 03:01:00,63.0,62.4,29.77,ESE,115,0.0,0.0,98,0.00,,---,0.01,0.00,VWS V14.01,2013-09-03 07:01:00,
2013-09-03 03:06:00,63.0,62.4,29.78,ESE,115,0.0,0.0,98,0.00,,---,0.01,0.00,VWS V14.01,2013-09-03 07:06:00,
2013-09-03 03:11:00,63.0,62.4,29.77,ESE,115,0.0,0.0,98,0.00,,---,0.01,0.00,VWS V14.01,2013-09-03 07:11:00,
2013-09-03 03:16:00,62.9,62.3,29.78,ESE,115,0.0,0.0,98,0.00,,---,0.01,0.00,VWS V14.01,2013-09-03 07:16:00,
2013-09-03 03:21:00,62.9,62.3,29.77,ESE,115,0.0,0.0,98,0.00,,---,0.01,0.00,VWS V14.01,2013-09-03 07:21:00,
2013-09-03 03:26:00,62.7,62.1,29.78,ESE,115,0.0,2.0,98,0.00,,---,0.01,0.00,VWS V14.01,2013-09-03 07:26:00,
2013-09-03 03:30:00,63.6,62.7,29.77,ESE,115,0.0,0.0,97,0.00,,---,0.01,0.00,VWS V14.01,2013-09-03 07:30:00,
2013-09-03 03:31:00,62.6,62.0,29.78,ESE,115,0.0,0.0,98,0.00,,---,0.01,0.00,VWS V14.01,2013-09-03 07:31:00,
2013-09-03 03:36:00,62.4,61.8,29.78,ESE,115,0.0,0.0,98,0.00,,---,0.01,0.00,VWS V14.01,2013-09-03 07:36:00,
2013-09-03 03:41:00,62.3,61.7,29.78,ESE,115,0.0,0.0,98,0.00,,---,0.01,0.00,VWS V14.01,2013-09-03 07:41:00,
2013-09-03 03:46:00,62.2,61.6,29.78,ESE,115,0.0,0.0,98,0.00,,---,0.01,0.00,VWS V14.01,2013-09-03 07:46:00,
2013-09-03 03:51:00,62.1,61.5,29.78,ESE,115,0.0,0.0,98,0.00,,---,0.01,0.00,VWS V14.01,2013-09-03 07:51:00,
2013-09-03 03:56:00,62.2,61.6,29.78,ESE,115,0.0,0.0,98,0.00,,---,0.01,0.00,VWS V14.01,2013-09-03 07:56:00,
2013-09-03 04:00:00,63.1,62.5,29.77,ESE,115,0.0,0.0,98,0.00,,---,0.01,0.00,VWS V14.01,2013-09-03 08:00:00,
2013-09-03 04:01:00,62.1,61.5,29.78,ESE,115,0.0,0.0,98,0.00,,---,0.01,0.00,VWS V14.01,2013-09-03 08:01:00,
2013-09-03 04:06:00,62.1,61.5,29.78,ESE,115,0.0,0.0,98,0.00,,---,0.01,0.00,VWS V14.01,2013-09-03 08:06:00,
2013-09-03 04:11:00,62.2,61.6,29.78,ESE,115,0.0,0.0,98,0.00,,---,0.01,0.00,VWS V14.01,2013-09-03 08:11:00,
2013-09-03 04:16:00,62.2,61.6,29.78,ESE,115,0.0,0.0,98,0.00,,---,0.01,0.00,VWS V14.01,2013-09-03 08:16:00,
2013-09-03 04:21:00,62.2,61.6,29.78,ESE,115,0.0,0.0,98,0.00,,---,0.01,0.00,VWS V14.01,2013-09-03 08:21:00,
2013-09-03 04:26:00,62.1,61.5,29.78,ESE,115,0.0,0.0,98,0.00,,---,0.01,0.00,VWS V14.01,2013-09-03 08:26:00,
2013-09-03 04:30:00,62.6,62.0,29.78,ESE,115,0.0,2.0,98,0.00,,---,0.01,0.00,VWS V14.01,2013-09-03 08:30:00,
2013-09-03 04:31:00,62.0,61.4,29.78,ESE,115,0.0,0.0,98,0.00,,---,0.01,0.00,VWS V14.01,2013-09-03 08:31:00,
2013-09-03 04:36:00,62.0,61.4,29.78,ESE,115,0.0,0.0,98,0.00,,---,0.01,0.00,VWS V14.01,2013-09-03 08:36:00,
2013-09-03 04:41:00,61.9,61.3,29.77,ESE,115,0.0,0.0,98,0.00,,---,0.01,0.00,VWS V14.01,2013-09-03 08:41:00,
2013-09-03 04:46:00,62.1,61.5,29.77,ESE,115,0.0,0.0,98,0.00,,---,0.01,0.00,VWS V14.01,2013-09-03 08:46:00,
2013-09-03 04:51:00,62.1,61.5,29.77,ESE,115,0.0,0.0,98,0.00,,---,0.01,0.00,VWS V14.01,2013-09-03 08:51:00,
2013-09-03 04:56:00,62.0,61.4,29.78,ESE,115,0.0,0.0,98,0.00,,---,0.01,0.00,VWS V14.01,2013-09-03 08:56:00,
2013-09-03 05:00:00,62.1,61.5,29.78,ESE,115,0.0,0.0,98,0.00,,---,0.01,0.00,VWS V14.01,2013-09-03 09:00:00,
2013-09-03 05:01:00,62.0,61.4,29.78,ESE,115,0.0,0.0,98,0.00,,---,0.01,0.00,VWS V14.01,2013-09-03 09:01:00,
2013-09-03 05:06:00,62.0,61.4,29.78,ESE,115,0.0,0.0,98,0.00,,---,0.01,0.00,VWS V14.01,2013-09-03 09:06:00,
2013-09-03 05:11:00,62.1,61.5,29.78,ESE,115,0.0,0.0,98,0.00,,---,0.01,0.00,VWS V14.01,2013-09-03 09:11:00,
2013-09-03 05:16:00,62.0,61.4,29.77,ESE,115,0.0,0.0,98,0.00,,---,0.01,0.00,VWS V14.01,2013-09-03 09:16:00,
2013-09-03 05:21:00,62.0,61.4,29.79,ESE,115,0.0,0.0,98,0.00,,---,0.01,0.00,VWS V14.01,2013-09-03 09:21:00,
2013-09-03 05:26:00,61.9,61.3,29.79,ESE,115,0.0,0.0,98,0.00,,---,0.01,0.00,VWS V14.01,2013-09-03 09:26:00,
2013-09-03 05:30:00,62.1,61.5,29.78,ESE,115,0.0,0.0,98,0.00,,---,0.01,0.00,VWS V14.01,2013-09-03 09:30:00,
2013-09-03 05:31:00,61.8,61.2,29.79,ESE,115,0.0,0.0,98,0.00,,---,0.01,0.00,VWS V14.01,2013-09-03 09:31:00,
2013-09-03 05:36:00,61.7,61.1,29.79,ESE,115,0.0,0.0,98,0.00,,---,0.01,0.00,VWS V14.01,2013-09-03 09:36:00,
2013-09-03 05:41:00,61.7,61.1,29.79,ESE,115,0.0,0.0,98,0.00,,---,0.01,0.00,VWS V14.01,2013-09-03 09:41:00,
2013-09-03 05:46:00,61.8,61.2,29.79,ESE,115,0.0,0.0,98,0.00,,---,0.01,0.00,VWS V14.01,2013-09-03 09:46:00,
2013-09-03 05:51:00,61.7,61.1,29.79,ESE,115,0.0,0.0,98,0.00,,---,0.01,0.00,VWS V14.01,2013-09-03 09:51:00,
2013-09-03 05:56:00,61.8,61.2,29.80,ESE,115,0.0,0.0,98,0.00,,---,0.01,0.00,VWS V14.01,2013-09-03 09:56:00,
2013-09-03 06:00:00,62.0,61.4,29.78,ESE,115,0.0,0.0,98,0.00,,---,0.01,0.00,VWS V14.01,2013-09-03 10:00:00,
2013-09-03 06:01:00,61.8,61.2,29.80,ESE,115,0.0,0.0,98,0.00,,---,0.01,0.00,VWS V14.01,2013-09-03 10:01:00,
2013-09-03 06:06:00,61.7,61.1,29.80,ESE,115,0.0,0.0,98,0.00,,---,0.01,0.00,VWS V14.01,2013-09-03 10:06:00,
2013-09-03 06:11:00,61.6,61.0,29.79,ESE,115,0.0,0.0,98,0.00,,---,0.01,0.00,VWS V14.01,2013-09-03 10:11:00,
2013-09-03 06:16:00,61.5,60.9,29.80,ESE,115,0.0,0.0,98,0.00,,---,0.01,0.00,VWS V14.01,2013-09-03 10:16:00,
2013-09-03 06:21:00,61.4,60.8,29.80,ESE,115,0.0,0.0,98,0.00,,---,0.01,0.00,VWS V14.01,2013-09-03 10:21:00,
2013-09-03 06:26:00,61.4,60.8,29.80,ESE,115,0.0,0.0,98,0.00,,---,0.01,5.00,VWS V14.01,2013-09-03 10:26:00,
2013-09-03 06:30:00,61.8,61.2,29.79,ESE,115,0.0,0.0,98,0.00,,---,0.01,0.00,VWS V14.01,2013-09-03 10:30:00,
2013-09-03 06:31:00,61.4,60.8,29.80,ESE,115,0.0,0.0,98,0.00,,---,0.01,9.00,VWS V14.01,2013-09-03 10:31:00,
2013-09-03 06:36:00,61.4,60.8,29.80,ESE,115,0.0,0.0,98,0.00,,---,0.01,16.00,VWS V14.01,2013-09-03 10:36:00,
2013-09-03 06:41:00,61.3,60.7,29.81,ESE,115,0.0,0.0,98,0.00,,---,0.01,23.00,VWS V14.01,2013-09-03 10:41:00,
2013-09-03 06:46:00,61.3,60.7,29.81,ESE,115,0.0,0.0,98,0.00,,---,0.01,33.00,VWS V14.01,2013-09-03 10:46:00,
2013-09-03 06:51:00,61.4,60.8,29.82,ESE,115,0.0,0.0,98,0.00,,---,0.01,14.00,VWS V14.01,2013-09-03 10:51:00,
2013-09-03 06:56:00,61.5,60.9,29.82,ESE,115,0.0,0.0,98,0.00,,---,0.01,14.00,VWS V14.01,2013-09-03 10:56:00,
2013-09-03 07:00:00,61.8,61.2,29.80,ESE,115,0.0,0.0,98,0.00,,---,0.01,0.00,VWS V14.01,2013-09-03 11:00:00,
2013-09-03 07:01:00,61.7,61.4,29.82,ESE,115,0.0,0.0,99,0.00,,---,0.01,18.00,VWS V14.01,2013-09-03 11:01:00,
2013-09-03 07:06:00,61.7,61.4,29.82,ESE,115,0.0,0.0,99,0.00,,---,0.01,26.00,VWS V14.01,2013-09-03 11:06:00,
2013-09-03 07:10:00,61.7,61.4,29.82,ESE,115,0.0,0.0,99,0.00,,---,0.01,54.00,VWS V14.01,2013-09-03 11:10:00,
2013-09-03 07:15:00,61.8,61.5,29.82,ESE,115,0.0,0.0,99,0.00,,---,0.01,62.00,VWS V14.01,2013-09-03 11:15:00,
2013-09-03 07:20:00,61.9,61.3,29.81,ESE,115,0.0,0.0,98,0.00,,---,0.01,72.00,VWS V14.01,2013-09-03 11:20:00,
2013-09-03 07:25:00,62.1,61.5,29.81,ESE,115,0.0,0.0,98,0.00,,---,0.01,83.00,VWS V14.01,2013-09-03 11:25:00,
2013-09-03 07:30:00,62.4,62.1,29.82,ESE,115,0.0,0.0,99,0.00,,---,0.01,51.00,VWS V14.01,2013-09-03 11:30:00,
2013-09-03 07:35:00,62.5,62.2,29.82,ESE,115,0.0,0.0,99,0.00,,---,0.01,58.00,VWS V14.01,2013-09-03 11:35:00,
2013-09-03 07:40:00,62.7,62.4,29.83,ESE,115,0.0,0.0,99,0.00,,---,0.01,49.00,VWS V14.01,2013-09-03 11:40:00,
2013-09-03 07:45:00,62.8,62.5,29.83,ESE,115,0.0,0.0,99,0.00,,---,0.01,51.00,VWS V14.01,2013-09-03 11:45:00,
2013-09-03 07:50:00,63.0,62.7,29.83,ESE,115,0.0,0.0,99,0.00,,---,0.01,60.00,VWS V14.01,2013-09-03 11:50:00,
2013-09-03 07:55:00,63.2,62.9,29.83,ESE,115,0.0,0.0,99,0.00,,---,0.01,69.00,VWS V14.01,2013-09-03 11:55:00,
2013-09-03 08:00:00,63.4,63.1,29.83,ESE,115,0.0,0.0,99,0.00,,---,0.01,56.00,VWS V14.01,2013-09-03 12:00:00,
2013-09-03 08:05:00,63.5,63.2,29.83,ESE,115,0.0,0.0,99,0.00,,---,0.01,102.00,VWS V14.01,2013-09-03 12:05:00,
2013-09-03 08:10:00,63.7,63.4,29.83,ESE,115,0.0,0.0,99,0.00,,---,0.01,130.00,VWS V14.01,2013-09-03 12:10:00,
2013-09-03 08:15:00,63.9,63.6,29.83,ESE,115,0.0,0.0,99,0.00,,---,0.01,77.00,VWS V14.01,2013-09-03 12:15:00,
2013-09-03 08:20:00,63.8,63.5,29.83,ESE,115,0.0,0.0,99,0.00,,---,0.01,67.00,VWS V14.01,2013-09-03 12:20:00,
2013-09-03 08:25:00,63.8,63.5,29.83,ESE,115,0.0,0.0,99,0.00,,---,0.01,35.00,VWS V14.01,2013-09-03 12:25:00,
2013-09-03 08:30:00,63.9,63.6,29.83,ESE,115,0.0,0.0,99,0.00,,---,0.01,39.00,VWS V14.01,2013-09-03 12:30:00,
2013-09-03 08:35:00,63.9,63.3,29.83,ESE,115,0.0,0.0,98,0.00,,---,0.01,67.00,VWS V14.01,2013-09-03 12:35:00,
2013-09-03 08:40:00,64.0,63.7,29.83,ESE,115,0.0,0.0,99,0.00,,---,0.01,90.00,VWS V14.01,2013-09-03 12:40:00,
2013-09-03 08:45:00,64.1,63.8,29.83,ESE,115,0.0,0.0,99,0.00,,---,0.01,113.00,VWS V14.01,2013-09-03 12:45:00,
2013-09-03 08:50:00,64.2,63.9,29.83,ESE,115,0.0,0.0,99,0.00,,---,0.01,93.00,VWS V14.01,2013-09-03 12:50:00,
2013-09-03 08:55:00,64.4,64.1,29.83,ESE,115,0.0,0.0,99,0.00,,---,0.01,121.00,VWS V14.01,2013-09-03 12:55:00,
2013-09-03 09:00:00,64.7,64.4,29.83,ESE,115,0.0,0.0,99,0.00,,---,0.01,141.00,VWS V14.01,2013-09-03 13:00:00,
2013-09-03 09:05:00,64.9,64.6,29.83,ESE,115,0.0,0.0,99,0.00,,---,0.01,151.00,VWS V14.01,2013-09-03 13:05:00,
2013-09-03 09:10:00,65.1,64.8,29.83,ESE,115,0.0,0.0,99,0.00,,---,0.01,141.00,VWS V14.01,2013-09-03 13:10:00,
2013-09-03 09:15:00,65.3,65.0,29.83,ESE,115,0.0,0.0,99,0.00,,---,0.01,74.00,VWS V14.01,2013-09-03 13:15:00,
2013-09-03 09:20:00,65.4,65.1,29.83,ESE,115,0.0,0.0,99,0.00,,---,0.01,69.00,VWS V14.01,2013-09-03 13:20:00,
2013-09-03 09:25:00,65.4,65.1,29.83,ESE,115,0.0,0.0,99,0.00,,---,0.01,135.00,VWS V14.01,2013-09-03 13:25:00,
2013-09-03 09:30:00,65.7,65.4,29.83,ESE,115,0.0,0.0,99,0.00,,---,0.01,121.00,VWS V14.01,2013-09-03 13:30:00,
2013-09-03 09:35:00,65.9,65.6,29.83,ESE,115,0.0,0.0,99,0.00,,---,0.01,142.00,VWS V14.01,2013-09-03 13:35:00,
2013-09-03 09:40:00,65.9,65.6,29.83,ESE,115,0.0,0.0,99,0.00,,---,0.01,141.00,VWS V14.01,2013-09-03 13:40:00,
2013-09-03 09:45:00,65.8,65.2,29.83,ESE,115,0.0,0.0,98,0.00,,---,0.01,123.00,VWS V14.01,2013-09-03 13:45:00,
2013-09-03 09:50:00,65.7,65.1,29.84,ESE,115,0.0,0.0,98,0.00,,---,0.01,63.00,VWS V14.01,2013-09-03 13:50:00,
2013-09-03 09:55:00,65.5,64.9,29.84,ESE,115,0.0,0.0,98,0.00,,---,0.01,51.00,VWS V14.01,2013-09-03 13:55:00,
2013-09-03 10:00:00,65.5,64.9,29.83,ESE,115,0.0,0.0,98,0.00,,---,0.01,86.00,VWS V14.01,2013-09-03 14:00:00,
2013-09-03 10:05:00,65.5,64.9,29.83,ESE,115,0.0,0.0,98,0.00,,---,0.01,109.00,VWS V14.01,2013-09-03 14:05:00,
2013-09-03 10:10:00,65.5,64.9,29.84,ESE,115,0.0,0.0,98,0.00,,---,0.01,123.00,VWS V14.01,2013-09-03 14:10:00,
2013-09-03 10:15:00,65.5,64.9,29.83,ESE,115,0.0,0.0,98,0.00,,---,0.01,132.00,VWS V14.01,2013-09-03 14:15:00,
2013-09-03 10:20:00,65.6,65.0,29.84,ESE,115,0.0,0.0,98,0.00,,---,0.01,109.00,VWS V14.01,2013-09-03 14:20:00,
2013-09-03 10:25:00,65.6,64.7,29.84,ESE,115,0.0,0.0,97,0.00,,---,0.01,77.00,VWS V14.01,2013-09-03 14:25:00,
2013-09-03 10:30:00,65.6,64.7,29.84,ESE,115,0.0,0.0,97,0.00,,---,0.01,95.00,VWS V14.01,2013-09-03 14:30:00,
2013-09-03 10:35:00,65.6,64.7,29.84,ESE,115,0.0,0.0,97,0.00,,---,0.01,63.00,VWS V14.01,2013-09-03 14:35:00,
2013-09-03 10:40:00,65.6,64.7,29.84,ESE,115,0.0,0.0,97,0.00,,---,0.01,67.00,VWS V14.01,2013-09-03 14:40:00,
2013-09-03 10:45:00,65.7,64.8,29.84,ESE,115,0.0,0.0,97,0.00,,---,0.01,84.00,VWS V14.01,2013-09-03 14:45:00,
2013-09-03 10:50:00,65.7,64.8,29.84,ESE,115,0.0,0.0,97,0.00,,---,0.01,88.00,VWS V14.01,2013-09-03 14:50:00,
2013-09-03 10:55:00,65.8,64.9,29.84,ESE,115,0.0,0.0,97,0.00,,---,0.01,98.00,VWS V14.01,2013-09-03 14:55:00,
2013-09-03 11:00:00,65.7,64.5,29.84,ESE,115,0.0,0.0,96,0.00,,---,0.01,109.00,VWS V14.01,2013-09-03 15:00:00,
2013-09-03 11:05:00,65.4,63.9,29.84,ESE,115,0.0,0.0,95,0.00,,---,0.01,74.00,VWS V14.01,2013-09-03 15:05:00,
2013-09-03 11:10:00,65.3,63.5,29.84,ESE,115,0.0,0.0,94,0.00,,---,0.01,88.00,VWS V14.01,2013-09-03 15:10:00,
2013-09-03 11:15:00,65.3,63.5,29.84,ESE,115,0.0,0.0,94,0.00,,---,0.01,95.00,VWS V14.01,2013-09-03 15:15:00,
2013-09-03 11:20:00,65.4,63.9,29.84,ESE,115,0.0,0.0,95,0.00,,---,0.01,116.00,VWS V14.01,2013-09-03 15:20:00,
2013-09-03 11:25:00,65.7,64.2,29.84,ESE,115,0.0,0.0,95,0.00,,---,0.01,120.00,VWS V14.01,2013-09-03 15:25:00,
2013-09-03 11:30:00,65.6,63.8,29.84,ESE,115,0.0,0.0,94,0.00,,---,0.01,95.00,VWS V14.01,2013-09-03 15:30:00,
2013-09-03 11:35:00,65.7,63.9,29.84,WSW,242,2.0,2.0,94,0.00,,---,0.01,105.00,VWS V14.01,2013-09-03 15:35:00,
2013-09-03 11:40:00,65.8,64.0,29.84,WSW,242,0.0,3.0,94,0.00,,---,0.01,181.00,VWS V14.01,2013-09-03 15:40:00,
2013-09-03 11:45:00,66.0,63.9,29.84,WSW,242,0.0,3.0,93,0.00,,---,0.01,155.00,VWS V14.01,2013-09-03 15:45:00,
2013-09-03 11:50:00,66.1,63.7,29.84,SW,214,0.0,3.0,92,0.00,,---,0.01,134.00,VWS V14.01,2013-09-03 15:50:00,
2013-09-03 11:55:00,66.2,63.5,29.84,SW,222,0.0,3.0,91,0.00,,---,0.01,162.00,VWS V14.01,2013-09-03 15:55:00,
2013-09-03 12:00:00,66.3,63.9,29.84,SW,222,0.0,0.0,92,0.00,,---,0.01,137.00,VWS V14.01,2013-09-03 16:00:00,
2013-09-03 12:05:00,66.3,63.3,29.84,SW,222,0.0,0.0,90,0.00,,---,0.01,149.00,VWS V14.01,2013-09-03 16:05:00,
2013-09-03 12:10:00,66.4,63.4,29.84,East,96,1.0,1.0,90,0.00,,---,0.01,181.00,VWS V14.01,2013-09-03 16:10:00,
2013-09-03 12:15:00,66.7,64.0,29.84,WSW,246,0.0,2.0,91,0.00,,---,0.01,158.00,VWS V14.01,2013-09-03 16:15:00,
2013-09-03 12:20:00,66.7,63.4,29.84,WSW,246,0.0,2.0,89,0.00,,---,0.01,176.00,VWS V14.01,2013-09-03 16:20:00,
2013-09-03 12:25:00,66.9,63.6,29.83,WSW,246,0.0,2.0,89,0.00,,---,0.01,241.00,VWS V14.01,2013-09-03 16:25:00,
2013-09-03 12:30:00,67.1,63.4,29.84,West,269,0.0,0.0,88,0.00,,---,0.01,225.00,VWS V14.01,2013-09-03 16:30:00,
2013-09-03 12:35:00,67.4,63.4,29.84,WNW,293,2.0,3.0,87,0.00,,---,0.01,186.00,VWS V14.01,2013-09-03 16:35:00,
2013-09-03 12:40:00,67.5,63.5,29.83,West,259,0.0,7.0,87,0.00,,---,0.01,211.00,VWS V14.01,2013-09-03 16:40:00,
2013-09-03 12:45:00,67.6,63.3,29.83,West,259,0.0,7.0,86,0.00,,---,0.01,308.00,VWS V14.01,2013-09-03 16:45:00,
2013-09-03 12:50:00,67.7,62.7,29.83,West,259,0.0,7.0,84,0.00,,---,0.01,220.00,VWS V14.01,2013-09-03 16:50:00,
2013-09-03 12:55:00,67.8,62.8,29.83,West,259,0.0,7.0,84,0.00,,---,0.01,211.00,VWS V14.01,2013-09-03 16:55:00,
2013-09-03 13:00:00,68.0,62.7,29.83,West,259,1.0,1.0,83,0.00,,---,0.01,246.00,VWS V14.01,2013-09-03 17:00:00,
2013-09-03 13:05:00,68.1,62.4,29.84,West,259,0.0,3.0,82,0.00,,---,0.01,183.00,VWS V14.01,2013-09-03 17:05:00,
2013-09-03 13:10:00,68.1,62.4,29.84,East,92,2.0,3.0,82,0.00,,---,0.01,216.00,VWS V14.01,2013-09-03 17:10:00,
2013-09-03 13:15:00,68.1,62.8,29.84,East,82,0.0,3.0,83,0.00,,---,0.01,223.00,VWS V14.01,2013-09-03 17:15:00,
2013-09-03 13:20:00,68.3,62.9,29.84,East,82,0.0,3.0,83,0.00,,---,0.01,272.00,VWS V14.01,2013-09-03 17:20:00,
2013-09-03 13:25:00,68.6,63.2,29.83,East,82,1.0,3.0,83,0.00,,---,0.01,397.00,VWS V14.01,2013-09-03 17:25:00,
2013-09-03 13:30:00,69.0,62.9,29.83,East,82,0.0,3.0,81,0.00,,---,0.01,329.00,VWS V14.01,2013-09-03 17:30:00,
2013-09-03 13:35:00,69.2,63.1,29.83,East,82,0.0,3.0,81,0.00,,---,0.01,279.00,VWS V14.01,2013-09-03 17:35:00,
2013-09-03 13:40:00,69.5,63.4,29.83,East,82,0.0,3.0,81,0.00,,---,0.01,294.00,VWS V14.01,2013-09-03 17:40:00,
2013-09-03 13:45:00,69.6,62.4,29.83,East,82,0.0,3.0,78,0.00,,---,0.01,265.00,VWS V14.01,2013-09-03 17:45:00,
2013-09-03 13:50:00,69.8,63.4,29.83,East,80,0.0,3.0,80,0.00,,---,0.01,371.00,VWS V14.01,2013-09-03 17:50:00,
2013-09-03 13:55:00,70.0,62.8,29.83,WSW,248,0.0,5.0,78,0.00,,---,0.01,455.00,VWS V14.01,2013-09-03 17:55:00,
2013-09-03 14:00:00,70.2,63.4,29.83,WSW,248,0.0,0.0,79,0.00,,---,0.01,297.00,VWS V14.01,2013-09-03 18:00:00,
2013-09-03 14:05:00,70.4,62.8,29.82,WNW,300,0.0,4.0,77,0.00,,---,0.01,311.00,VWS V14.01,2013-09-03 18:05:00,
2013-09-03 14:10:00,70.4,62.8,29.82,West,263,6.0,6.0,77,0.00,,---,0.01,294.00,VWS V14.01,2013-09-03 18:10:00,
2013-09-03 14:15:00,70.2,62.3,29.82,WSW,256,0.0,6.0,76,0.00,,---,0.01,285.00,VWS V14.01,2013-09-03 18:15:00,
2013-09-03 14:20:00,70.3,62.8,29.82,WSW,256,0.0,6.0,77,0.00,,---,0.01,260.00,VWS V14.01,2013-09-03 18:20:00,
2013-09-03 14:25:00,70.2,62.7,29.82,WSW,257,0.0,6.0,77,0.00,,---,0.01,322.00,VWS V14.01,2013-09-03 18:25:00,
2013-09-03 14:30:00,70.4,62.5,29.81,WSW,257,0.0,0.0,76,0.00,,---,0.01,629.00,VWS V14.01,2013-09-03 18:30:00,
2013-09-03 14:35:00,71.0,62.7,29.81,West,273,0.0,4.0,75,0.00,,---,0.01,427.00,VWS V14.01,2013-09-03 18:35:00,
2013-09-03 14:40:00,71.3,62.2,29.81,WNW,295,0.0,5.0,73,0.00,,---,0.01,464.00,VWS V14.01,2013-09-03 18:40:00,
2013-09-03 14:45:00,71.6,62.9,29.81,West,265,0.0,5.0,74,0.00,,---,0.01,891.00,VWS V14.01,2013-09-03 18:45:00,
2013-09-03 14:50:00,72.2,63.1,29.81,West,265,0.0,5.0,73,0.00,,---,0.01,860.00,VWS V14.01,2013-09-03 18:50:00,
2013-09-03 14:55:00,72.8,63.3,29.81,ENE,61,0.0,5.0,72,0.00,,---,0.01,649.00,VWS V14.01,2013-09-03 18:55:00,
2013-09-03 15:00:00,73.1,64.3,29.81,West,261,2.0,2.0,74,0.00,,---,0.01,649.00,VWS V14.01,2013-09-03 19:00:00,
2013-09-03 15:05:00,73.3,63.3,29.81,West,275,4.0,4.0,71,0.00,,---,0.01,812.00,VWS V14.01,2013-09-03 19:05:00,
2013-09-03 15:10:00,73.0,62.7,29.81,West,275,0.0,4.0,70,0.00,,---,0.01,346.00,VWS V14.01,2013-09-03 19:10:00,
2013-09-03 15:15:00,73.1,62.7,29.80,West,275,0.0,4.0,70,0.00,,---,0.01,821.00,VWS V14.01,2013-09-03 19:15:00,
2013-09-03 15:20:00,73.7,64.1,29.80,West,275,1.0,4.0,72,0.00,,---,0.01,721.00,VWS V14.01,2013-09-03 19:20:00,
2013-09-03 15:25:00,74.4,63.6,29.81,WNW,284,5.0,7.0,69,0.00,,---,0.01,241.00,VWS V14.01,2013-09-03 19:25:00,
2013-09-03 15:30:00,73.7,63.3,29.81,WNW,284,0.0,7.0,70,0.00,,---,0.01,788.00,VWS V14.01,2013-09-03 19:30:00,
2013-09-03 15:35:00,73.3,62.5,29.81,WSW,257,4.0,7.0,69,0.00,,---,0.01,181.00,VWS V14.01,2013-09-03 19:35:00,
2013-09-03 15:40:00,72.6,63.1,29.81,WSW,252,0.0,7.0,72,0.00,,---,0.01,338.00,VWS V14.01,2013-09-03 19:40:00,
2013-09-03 15:45:00,72.4,62.5,29.81,SW,227,0.0,7.0,71,0.00,,---,0.01,338.00,VWS V14.01,2013-09-03 19:45:00,
2013-09-03 15:50:00,73.1,63.5,29.81,WNW,297,0.0,7.0,72,0.00,,---,0.01,626.00,VWS V14.01,2013-09-03 19:50:00,
2013-09-03 15:55:00,73.9,63.9,29.81,WNW,294,4.0,7.0,71,0.00,,---,0.01,652.00,VWS V14.01,2013-09-03 19:55:00,
2013-09-03 16:00:00,74.5,63.7,29.81,WNW,294,0.0,0.0,69,0.00,,---,0.01,606.00,VWS V14.01,2013-09-03 20:00:00,
2013-09-03 16:05:00,74.6,63.3,29.81,NW,308,0.0,5.0,68,0.00,,---,0.01,680.00,VWS V14.01,2013-09-03 20:05:00,
2013-09-03 16:10:00,74.8,63.1,29.81,West,261,0.0,5.0,67,0.00,,---,0.01,592.00,VWS V14.01,2013-09-03 20:10:00,
2013-09-03 16:15:00,74.7,63.0,29.81,West,261,0.0,5.0,67,0.00,,---,0.01,158.00,VWS V14.01,2013-09-03 20:15:00,
2013-09-03 16:20:00,74.2,63.4,29.81,West,261,1.0,5.0,69,0.00,,---,0.01,234.00,VWS V14.01,2013-09-03 20:20:00,
2013-09-03 16:25:00,73.7,62.9,29.81,WNW,286,0.0,5.0,69,0.00,,---,0.01,322.00,VWS V14.01,2013-09-03 20:25:00,
2013-09-03 16:30:00,73.6,62.8,29.81,WNW,283,2.0,3.0,69,0.00,,---,0.01,352.00,VWS V14.01,2013-09-03 20:30:00,
2013-09-03 16:35:00,73.6,63.6,29.81,West,271,3.0,5.0,71,0.00,,---,0.01,197.00,VWS V14.01,2013-09-03 20:35:00,
2013-09-03 16:40:00,73.5,63.5,29.81,WNW,288,0.0,5.0,71,0.00,,---,0.01,153.00,VWS V14.01,2013-09-03 20:40:00,
2013-09-03 16:45:00,73.4,63.4,29.81,WNW,284,0.0,5.0,71,0.00,,---,0.01,295.00,VWS V14.01,2013-09-03 20:45:00,
2013-09-03 16:50:00,73.3,63.3,29.81,WSW,254,0.0,5.0,71,0.00,,---,0.01,183.00,VWS V14.01,2013-09-03 20:50:00,
2013-09-03 16:55:00,73.1,63.5,29.81,NE,48,1.0,5.0,72,0.00,,---,0.01,141.00,VWS V14.01,2013-09-03 20:55:00,
2013-09-03 17:00:00,72.9,64.1,29.82,NE,48,0.0,5.0,74,0.00,,---,0.01,151.00,VWS V14.01,2013-09-03 21:00:00,
2013-09-03 17:05:00,72.6,63.1,29.82,SW,229,0.0,3.0,72,0.00,,---,0.01,113.00,VWS V14.01,2013-09-03 21:05:00,
2013-09-03 17:10:00,72.3,63.6,29.82,SW,229,0.0,3.0,74,0.00,,---,0.01,121.00,VWS V14.01,2013-09-03 21:10:00,
2013-09-03 17:15:00,72.2,63.5,29.82,SW,229,0.0,3.0,74,0.00,,---,0.01,97.00,VWS V14.01,2013-09-03 21:15:00,
2013-09-03 17:20:00,72.2,64.2,29.82,SW,229,0.0,3.0,76,0.00,,---,0.01,411.00,VWS V14.01,2013-09-03 21:20:00,
2013-09-03 17:25:00,72.2,64.2,29.82,SW,229,0.0,3.0,76,0.00,,---,0.01,364.00,VWS V14.01,2013-09-03 21:25:00,
2013-09-03 17:30:00,72.3,64.3,29.82,SW,229,0.0,0.0,76,0.00,,---,0.01,294.00,VWS V14.01,2013-09-03 21:30:00,
2013-09-03 17:35:00,72.1,61.8,29.82,WNW,290,10.0,10.0,70,0.00,,---,0.01,271.00,VWS V14.01,2013-09-03 21:35:00,
2013-09-03 17:40:00,71.8,60.3,29.83,WSW,252,2.0,10.0,67,0.00,,---,0.01,51.00,VWS V14.01,2013-09-03 21:40:00,
2013-09-03 17:45:00,71.4,61.1,29.83,NE,51,0.0,10.0,70,0.00,,---,0.01,97.00,VWS V14.01,2013-09-03 21:45:00,
2013-09-03 17:50:00,70.9,61.0,29.83,WNW,296,0.0,10.0,71,0.00,,---,0.01,104.00,VWS V14.01,2013-09-03 21:50:00,
2013-09-03 17:55:00,70.5,61.0,29.83,West,264,0.0,10.0,72,0.00,,---,0.01,58.00,VWS V14.01,2013-09-03 21:55:00,
2013-09-03 18:00:00,70.2,61.2,29.83,NE,45,0.0,10.0,73,0.00,,---,0.01,39.00,VWS V14.01,2013-09-03 22:00:00,
2013-09-03 18:05:00,69.7,60.3,29.83,NNW,327,0.0,8.0,72,0.00,,---,0.01,37.00,VWS V14.01,2013-09-03 22:05:00,
2013-09-03 18:10:00,69.4,60.4,29.83,ENE,57,0.0,8.0,73,0.00,,---,0.01,28.00,VWS V14.01,2013-09-03 22:10:00,
2013-09-03 18:15:00,69.0,60.0,29.83,East,94,0.0,8.0,73,0.00,,---,0.01,30.00,VWS V14.01,2013-09-03 22:15:00,
2013-09-03 18:20:00,68.7,60.1,29.83,ENE,71,0.0,8.0,74,0.00,,---,0.01,33.00,VWS V14.01,2013-09-03 22:20:00,
2013-09-03 18:25:00,68.4,59.8,29.83,West,263,0.0,8.0,74,0.00,,---,0.01,37.00,VWS V14.01,2013-09-03 22:25:00,
2013-09-03 18:30:00,68.2,59.6,29.83,SW,232,0.0,8.0,74,0.00,,---,0.01,42.00,VWS V14.01,2013-09-03 22:30:00,
2013-09-03 18:35:00,68.1,59.9,29.83,ENE,58,0.0,3.0,75,0.00,,---,0.01,35.00,VWS V14.01,2013-09-03 22:35:00,
2013-09-03 18:40:00,68.0,59.4,29.84,West,261,0.0,4.0,74,0.00,,---,0.01,25.00,VWS V14.01,2013-09-03 22:40:00,
2013-09-03 18:45:00,67.8,59.2,29.84,West,261,0.0,4.0,74,0.00,,---,0.01,25.00,VWS V14.01,2013-09-03 22:45:00,
2013-09-03 18:50:00,67.6,59.8,29.84,SW,227,0.0,4.0,76,0.00,,---,0.01,21.00,VWS V14.01,2013-09-03 22:50:00,
2013-09-03 18:55:00,67.4,59.6,29.84,ENE,78,0.0,4.0,76,0.00,,---,0.01,26.00,VWS V14.01,2013-09-03 22:55:00,
2013-09-03 19:00:00,67.3,59.5,29.84,ENE,78,0.0,4.0,76,0.00,,---,0.01,19.00,VWS V14.01,2013-09-03 23:00:00,
2013-09-03 19:05:00,67.2,59.8,29.84,ENE,78,0.0,0.0,77,0.00,,---,0.01,12.00,VWS V14.01,2013-09-03 23:05:00,
2013-09-03 19:10:00,66.9,59.5,29.85,ENE,78,0.0,0.0,77,0.00,,---,0.01,9.00,VWS V14.01,2013-09-03 23:10:00,
2013-09-03 19:15:00,66.7,59.6,29.85,ENE,78,0.0,0.0,78,0.00,,---,0.01,0.00,VWS V14.01,2013-09-03 23:15:00,
2013-09-03 19:20:00,66.4,59.3,29.85,ENE,78,0.0,0.0,78,0.00,,---,0.01,0.00,VWS V14.01,2013-09-03 23:20:00,
2013-09-03 19:25:00,66.2,59.5,29.85,ENE,78,4.0,4.0,79,0.00,,---,0.01,0.00,VWS V14.01,2013-09-03 23:25:00,
2013-09-03 19:30:00,66.1,59.0,29.86,East,80,0.0,4.0,78,0.00,,---,0.01,0.00,VWS V14.01,2013-09-03 23:30:00,
2013-09-03 19:35:00,65.9,59.2,29.86,East,80,0.0,0.0,79,0.00,,---,0.01,0.00,VWS V14.01,2013-09-03 23:35:00,
2013-09-03 19:40:00,65.8,58.8,29.86,WSW,238,0.0,4.0,78,0.00,,---,0.01,0.00,VWS V14.01,2013-09-03 23:40:00,
2013-09-03 19:45:00,65.8,58.8,29.86,SW,220,0.0,6.0,78,0.00,,---,0.01,0.00,VWS V14.01,2013-09-03 23:45:00,
2013-09-03 19:50:00,65.8,58.8,29.86,SW,220,0.0,6.0,78,0.00,,---,0.01,0.00,VWS V14.01,2013-09-03 23:50:00,
2013-09-03 19:55:00,65.7,58.7,29.87,SW,220,0.0,6.0,78,0.00,,---,0.01,0.00,VWS V14.01,2013-09-03 23:55:00,
2013-09-03 20:00:00,65.6,58.9,29.87,SW,220,0.0,6.0,79,0.00,,---,0.01,0.00,VWS V14.01,2013-09-04 00:00:00,
2013-09-03 20:05:00,65.4,58.4,29.87,ENE,69,0.0,2.0,78,0.00,,---,0.01,0.00,VWS V14.01,2013-09-04 00:05:00,
2013-09-03 20:10:00,65.4,59.1,29.87,ENE,69,0.0,2.0,80,0.00,,---,0.01,0.00,VWS V14.01,2013-09-04 00:10:00,
2013-09-03 20:15:00,65.2,58.9,29.87,ENE,69,3.0,3.0,80,0.00,,---,0.01,0.00,VWS V14.01,2013-09-04 00:15:00,
2013-09-03 20:20:00,64.9,58.6,29.87,ENE,71,0.0,3.0,80,0.00,,---,0.01,0.00,VWS V14.01,2013-09-04 00:20:00,
2013-09-03 20:25:00,64.8,58.5,29.87,ENE,71,0.0,3.0,80,0.00,,---,0.01,0.00,VWS V14.01,2013-09-04 00:25:00,
2013-09-03 20:30:00,64.7,58.4,29.87,WSW,246,0.0,3.0,80,0.00,,---,0.01,0.00,VWS V14.01,2013-09-04 00:30:00,
2013-09-03 20:35:00,64.5,58.2,29.88,West,275,0.0,4.0,80,0.00,,---,0.01,0.00,VWS V14.01,2013-09-04 00:35:00,
2013-09-03 20:40:00,64.5,57.8,29.88,West,259,0.0,4.0,79,0.00,,---,0.01,0.00,VWS V14.01,2013-09-04 00:40:00,
2013-09-03 20:45:00,64.3,58.0,29.88,West,259,0.0,4.0,80,0.00,,---,0.01,0.00,VWS V14.01,2013-09-04 00:45:00,
2013-09-03 20:50:00,64.0,57.7,29.89,West,259,0.0,4.0,80,0.00,,---,0.01,0.00,VWS V14.01,2013-09-04 00:50:00,
2013-09-03 20:55:00,63.8,57.9,29.89,West,259,0.0,4.0,81,0.00,,---,0.01,0.00,VWS V14.01,2013-09-04 00:55:00,
2013-09-03 21:00:00,63.6,58.0,29.89,West,259,0.0,4.0,82,0.00,,---,0.01,0.00,VWS V14.01,2013-09-04 01:00:00,
2013-09-03 21:05:00,63.4,57.8,29.89,West,259,0.0,0.0,82,0.00,,---,0.01,0.00,VWS V14.01,2013-09-04 01:05:00,
2013-09-03 21:10:00,63.2,57.6,29.89,West,259,0.0,0.0,82,0.00,,---,0.01,0.00,VWS V14.01,2013-09-04 01:10:00,
2013-09-03 21:15:00,63.0,57.4,29.89,West,259,0.0,0.0,82,0.00,,---,0.01,0.00,VWS V14.01,2013-09-04 01:15:00,
2013-09-03 21:20:00,62.9,57.7,29.89,West,259,0.0,0.0,83,0.00,,---,0.01,0.00,VWS V14.01,2013-09-04 01:20:00,
2013-09-03 21:25:00,62.7,57.5,29.89,West,259,0.0,0.0,83,0.00,,---,0.01,0.00,VWS V14.01,2013-09-04 01:25:00,
2013-09-03 21:30:00,62.5,57.6,29.90,West,259,0.0,0.0,84,0.00,,---,0.01,0.00,VWS V14.01,2013-09-04 01:30:00,
2013-09-03 21:35:00,62.4,57.8,29.90,West,259,0.0,0.0,85,0.00,,---,0.01,0.00,VWS V14.01,2013-09-04 01:35:00,
2013-09-03 21:40:00,62.3,57.7,29.90,West,259,0.0,0.0,85,0.00,,---,0.01,0.00,VWS V14.01,2013-09-04 01:40:00,
2013-09-03 21:45:00,62.2,57.6,29.90,West,259,0.0,0.0,85,0.00,,---,0.01,0.00,VWS V14.01,2013-09-04 01:45:00,
2013-09-03 21:50:00,62.0,57.5,29.90,West,259,0.0,0.0,85,0.00,,---,0.01,0.00,VWS V14.01,2013-09-04 01:50:00,
2013-09-03 21:55:00,61.9,58.0,29.90,West,259,0.0,0.0,87,0.00,,---,0.01,0.00,VWS V14.01,2013-09-04 01:55:00,
2013-09-03 22:00:00,61.7,57.8,29.90,West,259,0.0,0.0,87,0.00,,---,0.01,0.00,VWS V14.01,2013-09-04 02:00:00,
2013-09-03 22:05:00,61.3,57.7,29.90,West,259,0.0,0.0,88,0.00,,---,0.01,0.00,VWS V14.01,2013-09-04 02:05:00,
2013-09-03 22:10:00,60.9,57.6,29.90,West,259,0.0,0.0,89,0.00,,---,0.01,0.00,VWS V14.01,2013-09-04 02:10:00,
2013-09-03 22:15:00,60.6,57.3,29.90,West,259,0.0,0.0,89,0.00,,---,0.01,0.00,VWS V14.01,2013-09-04 02:15:00,
2013-09-03 22:20:00,60.2,57.3,29.90,West,259,0.0,0.0,90,0.00,,---,0.01,0.00,VWS V14.01,2013-09-04 02:20:00,
2013-09-03 22:25:00,59.9,57.0,29.90,West,259,0.0,0.0,90,0.00,,---,0.01,0.00,VWS V14.01,2013-09-04 02:25:00,
2013-09-03 22:30:00,59.7,57.1,29.90,West,259,0.0,0.0,91,0.00,,---,0.01,0.00,VWS V14.01,2013-09-04 02:30:00,
2013-09-03 22:35:00,59.4,57.1,29.90,West,259,0.0,0.0,92,0.00,,---,0.01,0.00,VWS V14.01,2013-09-04 02:35:00,
2013-09-03 22:40:00,59.3,57.0,29.90,West,259,0.0,0.0,92,0.00,,---,0.01,0.00,VWS V14.01,2013-09-04 02:40:00,
2013-09-03 22:45:00,59.0,56.7,29.90,West,259,0.0,0.0,92,0.00,,---,0.01,0.00,VWS V14.01,2013-09-04 02:45:00,
2013-09-03 22:50:00,58.9,56.9,29.90,West,259,0.0,0.0,93,0.00,,---,0.01,0.00,VWS V14.01,2013-09-04 02:50:00,
2013-09-03 22:54:00,58.7,56.7,29.90,West,259,0.0,0.0,93,0.00,,---,0.01,0.00,VWS V14.01,2013-09-04 02:54:00,
2013-09-03 22:59:00,58.5,56.5,29.90,West,259,0.0,0.0,93,0.00,,---,0.01,0.00,VWS V14.01,2013-09-04 02:59:00,
2013-09-03 23:00:00,61.6,57.7,29.90,West,259,0.0,0.0,87,0.00,,---,0.01,0.00,VWS V14.01,2013-09-04 03:00:00,
2013-09-03 23:04:00,58.3,56.3,29.90,West,259,0.0,0.0,93,0.00,,---,0.01,0.00,VWS V14.01,2013-09-04 03:04:00,
2013-09-03 23:09:00,58.2,56.5,29.90,West,259,0.0,0.0,94,0.00,,---,0.01,0.00,VWS V14.01,2013-09-04 03:09:00,
2013-09-03 23:14:00,58.0,56.3,29.90,West,259,0.0,0.0,94,0.00,,---,0.01,0.00,VWS V14.01,2013-09-04 03:14:00,
2013-09-03 23:19:00,57.9,56.2,29.90,West,259,0.0,0.0,94,0.00,,---,0.01,0.00,VWS V14.01,2013-09-04 03:19:00,
2013-09-03 23:24:00,57.7,56.0,29.90,West,259,0.0,0.0,94,0.00,,---,0.01,0.00,VWS V14.01,2013-09-04 03:24:00,
2013-09-03 23:29:00,57.6,55.9,29.91,West,259,0.0,0.0,94,0.00,,---,0.01,0.00,VWS V14.01,2013-09-04 03:29:00,
2013-09-03 23:30:00,59.6,57.0,29.90,West,259,0.0,0.0,91,0.00,,---,0.01,0.00,VWS V14.01,2013-09-04 03:30:00,
2013-09-03 23:34:00,57.4,55.7,29.91,West,259,0.0,0.0,94,0.00,,---,0.01,0.00,VWS V14.01,2013-09-04 03:34:00,
2013-09-03 23:39:00,57.3,55.6,29.91,West,259,0.0,0.0,94,0.00,,---,0.01,0.00,VWS V14.01,2013-09-04 03:39:00,
2013-09-03 23:44:00,57.3,55.9,29.91,West,259,0.0,0.0,95,0.00,,---,0.01,0.00,VWS V14.01,2013-09-04 03:44:00,
2013-09-03 23:49:00,57.1,55.7,29.91,West,259,0.0,0.0,95,0.00,,---,0.01,0.00,VWS V14.01,2013-09-04 03:49:00,
2013-09-03 23:54:00,56.9,55.5,29.91,West,259,0.0,0.0,95,0.00,,---,0.01,0.00,VWS V14.01,2013-09-04 03:54:00,
2013-09-03 23:59:00,56.8,55.4,29.92,West,259,0.0,0.0,95,0.00,,---,0.01,0.00,VWS V14.01,2013-09-04 03:59:00,